sensor_id;sensor_type;location;lat;lon;timestamp;P1;durP1;ratioP1;P2;durP2;ratioP2
6723;SDS011;3399;52.530;13.304;2022-10-23T00:01:20;6.73;;;5.40;;
6723;SDS011;3399;52.530;13.304;2022-10-23T00:03:55;6.43;;;5.70;;
6723;SDS011;3399;52.530;13.304;2022-10-23T00:06:22;8.13;;;5.93;;
6723;SDS011;3399;52.530;13.304;2022-10-23T00:08:48;8.20;;;5.43;;
6723;SDS011;3399;52.530;13.304;2022-10-23T00:11:16;9.43;;;5.23;;
6723;SDS011;3399;52.530;13.304;2022-10-23T00:13:44;8.47;;;6.17;;
6723;SDS011;3399;52.530;13.304;2022-10-23T00:16:11;5.83;;;5.20;;
6723;SDS011;3399;52.530;13.304;2022-10-23T00:18:36;9.20;;;5.73;;
6723;SDS011;3399;52.530;13.304;2022-10-23T00:21:02;6.77;;;6.10;;
6723;SDS011;3399;52.530;13.304;2022-10-23T00:23:29;10.37;;;6.13;;
6723;SDS011;3399;52.530;13.304;2022-10-23T00:25:54;12.03;;;5.70;;
6723;SDS011;3399;52.530;13.304;2022-10-23T00:28:20;8.80;;;5.67;;
6723;SDS011;3399;52.530;13.304;2022-10-23T00:30:45;7.20;;;5.97;;
6723;SDS011;3399;52.530;13.304;2022-10-23T00:33:11;10.70;;;6.53;;
6723;SDS011;3399;52.530;13.304;2022-10-23T00:35:39;9.43;;;6.10;;
6723;SDS011;3399;52.530;13.304;2022-10-23T00:38:06;6.03;;;5.40;;
6723;SDS011;3399;52.530;13.304;2022-10-23T00:40:32;7.50;;;5.40;;
6723;SDS011;3399;52.530;13.304;2022-10-23T00:42:58;10.63;;;5.80;;
6723;SDS011;3399;52.530;13.304;2022-10-23T00:45:25;8.03;;;4.80;;
6723;SDS011;3399;52.530;13.304;2022-10-23T00:47:55;17.00;;;6.13;;
6723;SDS011;3399;52.530;13.304;2022-10-23T00:50:22;8.67;;;5.20;;
6723;SDS011;3399;52.530;13.304;2022-10-23T00:52:49;6.50;;;5.00;;
6723;SDS011;3399;52.530;13.304;2022-10-23T00:55:17;6.40;;;4.03;;
6723;SDS011;3399;52.530;13.304;2022-10-23T00:57:45;4.97;;;4.47;;
6723;SDS011;3399;52.530;13.304;2022-10-23T01:00:18;7.47;;;5.00;;
6723;SDS011;3399;52.530;13.304;2022-10-23T01:02:46;7.57;;;4.73;;
6723;SDS011;3399;52.530;13.304;2022-10-23T01:05:11;6.17;;;4.93;;
6723;SDS011;3399;52.530;13.304;2022-10-23T01:07:51;8.50;;;5.17;;
6723;SDS011;3399;52.530;13.304;2022-10-23T01:10:43;5.43;;;4.70;;
6723;SDS011;3399;52.530;13.304;2022-10-23T01:13:56;6.97;;;4.63;;
6723;SDS011;3399;52.530;13.304;2022-10-23T01:16:18;5.70;;;4.57;;
6723;SDS011;3399;52.530;13.304;2022-10-23T01:18:57;6.23;;;4.30;;
6723;SDS011;3399;52.530;13.304;2022-10-23T01:21:43;6.80;;;4.00;;
6723;SDS011;3399;52.530;13.304;2022-10-23T01:24:29;8.93;;;4.90;;
6723;SDS011;3399;52.530;13.304;2022-10-23T01:27:23;4.10;;;3.70;;
6723;SDS011;3399;52.530;13.304;2022-10-23T01:30:03;5.87;;;4.87;;
6723;SDS011;3399;52.530;13.304;2022-10-23T01:32:40;5.20;;;3.90;;
6723;SDS011;3399;52.530;13.304;2022-10-23T01:35:27;5.17;;;4.63;;
6723;SDS011;3399;52.530;13.304;2022-10-23T01:38:13;7.83;;;4.67;;
6723;SDS011;3399;52.530;13.304;2022-10-23T01:40:57;6.67;;;5.20;;
6723;SDS011;3399;52.530;13.304;2022-10-23T01:44:34;5.97;;;4.40;;
6723;SDS011;3399;52.530;13.304;2022-10-23T01:46:35;5.20;;;4.80;;
6723;SDS011;3399;52.530;13.304;2022-10-23T01:49:02;7.10;;;4.93;;
6723;SDS011;3399;52.530;13.304;2022-10-23T01:51:30;6.13;;;4.40;;
6723;SDS011;3399;52.530;13.304;2022-10-23T01:53:57;6.93;;;6.03;;
6723;SDS011;3399;52.530;13.304;2022-10-23T01:56:26;7.70;;;5.83;;
6723;SDS011;3399;52.530;13.304;2022-10-23T01:58:56;8.13;;;5.80;;
6723;SDS011;3399;52.530;13.304;2022-10-23T02:01:25;10.17;;;6.07;;
6723;SDS011;3399;52.530;13.304;2022-10-23T02:03:53;8.37;;;5.10;;
6723;SDS011;3399;52.530;13.304;2022-10-23T02:06:21;9.03;;;5.17;;
6723;SDS011;3399;52.530;13.304;2022-10-23T02:08:46;9.83;;;5.97;;
6723;SDS011;3399;52.530;13.304;2022-10-23T02:11:13;5.80;;;5.17;;
6723;SDS011;3399;52.530;13.304;2022-10-23T02:13:48;8.20;;;5.40;;
6723;SDS011;3399;52.530;13.304;2022-10-23T02:16:30;11.70;;;5.37;;
6723;SDS011;3399;52.530;13.304;2022-10-23T02:19:16;5.80;;;4.90;;
6723;SDS011;3399;52.530;13.304;2022-10-23T02:24:24;6.90;;;5.27;;
6723;SDS011;3399;52.530;13.304;2022-10-23T02:26:58;9.73;;;5.20;;
6723;SDS011;3399;52.530;13.304;2022-10-23T02:29:27;6.33;;;5.17;;
6723;SDS011;3399;52.530;13.304;2022-10-23T02:31:58;6.53;;;5.30;;
6723;SDS011;3399;52.530;13.304;2022-10-23T02:34:24;9.03;;;5.30;;
6723;SDS011;3399;52.530;13.304;2022-10-23T02:36:50;7.53;;;5.53;;
6723;SDS011;3399;52.530;13.304;2022-10-23T02:39:16;11.37;;;5.53;;
6723;SDS011;3399;52.530;13.304;2022-10-23T02:41:55;7.40;;;5.63;;
6723;SDS011;3399;52.530;13.304;2022-10-23T02:47:20;6.27;;;4.97;;
6723;SDS011;3399;52.530;13.304;2022-10-23T02:50:06;10.10;;;5.63;;
6723;SDS011;3399;52.530;13.304;2022-10-23T02:52:49;9.87;;;6.50;;
6723;SDS011;3399;52.530;13.304;2022-10-23T03:01:46;6.20;;;5.23;;
6723;SDS011;3399;52.530;13.304;2022-10-23T03:04:18;6.13;;;5.00;;
6723;SDS011;3399;52.530;13.304;2022-10-23T03:06:48;6.33;;;5.23;;
6723;SDS011;3399;52.530;13.304;2022-10-23T03:09:15;7.43;;;5.23;;
6723;SDS011;3399;52.530;13.304;2022-10-23T03:11:40;5.13;;;4.63;;
6723;SDS011;3399;52.530;13.304;2022-10-23T03:14:05;6.30;;;5.33;;
6723;SDS011;3399;52.530;13.304;2022-10-23T03:16:31;8.17;;;5.30;;
6723;SDS011;3399;52.530;13.304;2022-10-23T03:18:56;6.07;;;5.30;;
6723;SDS011;3399;52.530;13.304;2022-10-23T03:21:22;7.87;;;5.17;;
6723;SDS011;3399;52.530;13.304;2022-10-23T03:23:47;12.70;;;5.93;;
6723;SDS011;3399;52.530;13.304;2022-10-23T03:26:14;10.33;;;6.83;;
6723;SDS011;3399;52.530;13.304;2022-10-23T03:28:40;9.77;;;6.37;;
6723;SDS011;3399;52.530;13.304;2022-10-23T03:31:05;7.70;;;5.83;;
6723;SDS011;3399;52.530;13.304;2022-10-23T03:33:31;7.10;;;5.47;;
6723;SDS011;3399;52.530;13.304;2022-10-23T03:35:57;7.60;;;5.67;;
6723;SDS011;3399;52.530;13.304;2022-10-23T03:38:22;9.17;;;6.47;;
6723;SDS011;3399;52.530;13.304;2022-10-23T03:40:47;7.60;;;5.80;;
6723;SDS011;3399;52.530;13.304;2022-10-23T03:43:13;5.83;;;5.33;;
6723;SDS011;3399;52.530;13.304;2022-10-23T03:45:39;6.97;;;5.20;;
6723;SDS011;3399;52.530;13.304;2022-10-23T03:48:04;7.10;;;5.80;;
6723;SDS011;3399;52.530;13.304;2022-10-23T03:50:31;8.93;;;6.17;;
6723;SDS011;3399;52.530;13.304;2022-10-23T03:52:57;6.90;;;5.90;;
6723;SDS011;3399;52.530;13.304;2022-10-23T03:55:22;9.03;;;7.13;;
6723;SDS011;3399;52.530;13.304;2022-10-23T03:57:49;9.07;;;7.60;;
6723;SDS011;3399;52.530;13.304;2022-10-23T04:00:15;8.33;;;6.97;;
6723;SDS011;3399;52.530;13.304;2022-10-23T04:02:41;9.90;;;6.87;;
6723;SDS011;3399;52.530;13.304;2022-10-23T04:05:06;7.77;;;6.00;;
6723;SDS011;3399;52.530;13.304;2022-10-23T04:07:32;8.83;;;7.10;;
6723;SDS011;3399;52.530;13.304;2022-10-23T04:09:57;9.33;;;6.77;;
6723;SDS011;3399;52.530;13.304;2022-10-23T04:12:23;6.80;;;6.07;;
6723;SDS011;3399;52.530;13.304;2022-10-23T04:14:48;6.73;;;6.00;;
6723;SDS011;3399;52.530;13.304;2022-10-23T04:17:14;7.60;;;6.07;;
6723;SDS011;3399;52.530;13.304;2022-10-23T04:19:39;7.60;;;6.80;;
6723;SDS011;3399;52.530;13.304;2022-10-23T04:22:05;8.00;;;6.80;;
6723;SDS011;3399;52.530;13.304;2022-10-23T04:24:30;8.63;;;7.67;;
6723;SDS011;3399;52.530;13.304;2022-10-23T04:26:55;7.37;;;5.97;;
6723;SDS011;3399;52.530;13.304;2022-10-23T04:29:21;12.53;;;7.07;;
6723;SDS011;3399;52.530;13.304;2022-10-23T04:31:49;9.27;;;6.37;;
6723;SDS011;3399;52.530;13.304;2022-10-23T04:34:15;8.37;;;6.57;;
6723;SDS011;3399;52.530;13.304;2022-10-23T04:36:41;11.17;;;6.70;;
6723;SDS011;3399;52.530;13.304;2022-10-23T04:39:07;11.53;;;6.93;;
6723;SDS011;3399;52.530;13.304;2022-10-23T04:41:33;7.87;;;6.40;;
6723;SDS011;3399;52.530;13.304;2022-10-23T04:43:58;12.47;;;6.43;;
6723;SDS011;3399;52.530;13.304;2022-10-23T04:46:24;8.27;;;6.63;;
6723;SDS011;3399;52.530;13.304;2022-10-23T04:48:55;9.83;;;6.97;;
6723;SDS011;3399;52.530;13.304;2022-10-23T04:51:21;7.40;;;6.70;;
6723;SDS011;3399;52.530;13.304;2022-10-23T04:53:47;9.03;;;7.23;;
6723;SDS011;3399;52.530;13.304;2022-10-23T04:56:13;7.93;;;6.77;;
6723;SDS011;3399;52.530;13.304;2022-10-23T04:58:39;9.57;;;7.07;;
6723;SDS011;3399;52.530;13.304;2022-10-23T05:01:05;10.33;;;7.37;;
6723;SDS011;3399;52.530;13.304;2022-10-23T05:03:31;13.83;;;6.77;;
6723;SDS011;3399;52.530;13.304;2022-10-23T05:05:57;8.73;;;7.17;;
6723;SDS011;3399;52.530;13.304;2022-10-23T05:08:23;7.97;;;7.10;;
6723;SDS011;3399;52.530;13.304;2022-10-23T05:10:48;8.53;;;6.63;;
6723;SDS011;3399;52.530;13.304;2022-10-23T05:13:15;9.97;;;6.93;;
6723;SDS011;3399;52.530;13.304;2022-10-23T05:15:43;10.43;;;7.40;;
6723;SDS011;3399;52.530;13.304;2022-10-23T05:18:15;9.43;;;7.10;;
6723;SDS011;3399;52.530;13.304;2022-10-23T05:20:51;7.17;;;6.37;;
6723;SDS011;3399;52.530;13.304;2022-10-23T05:23:21;8.73;;;7.17;;
6723;SDS011;3399;52.530;13.304;2022-10-23T05:25:49;9.53;;;7.23;;
6723;SDS011;3399;52.530;13.304;2022-10-23T05:28:14;10.80;;;7.83;;
6723;SDS011;3399;52.530;13.304;2022-10-23T05:30:40;8.60;;;7.70;;
6723;SDS011;3399;52.530;13.304;2022-10-23T05:33:06;10.93;;;7.77;;
6723;SDS011;3399;52.530;13.304;2022-10-23T05:35:33;8.63;;;7.70;;
6723;SDS011;3399;52.530;13.304;2022-10-23T05:38:00;8.60;;;7.50;;
6723;SDS011;3399;52.530;13.304;2022-10-23T05:40:26;9.87;;;8.07;;
6723;SDS011;3399;52.530;13.304;2022-10-23T05:42:52;11.93;;;7.53;;
6723;SDS011;3399;52.530;13.304;2022-10-23T05:45:17;8.40;;;6.97;;
6723;SDS011;3399;52.530;13.304;2022-10-23T05:47:43;8.67;;;7.77;;
6723;SDS011;3399;52.530;13.304;2022-10-23T05:50:09;10.30;;;7.53;;
6723;SDS011;3399;52.530;13.304;2022-10-23T05:52:35;9.43;;;7.47;;
6723;SDS011;3399;52.530;13.304;2022-10-23T05:55:00;9.87;;;8.40;;
6723;SDS011;3399;52.530;13.304;2022-10-23T05:57:26;10.37;;;8.43;;
6723;SDS011;3399;52.530;13.304;2022-10-23T05:59:52;13.27;;;8.50;;
6723;SDS011;3399;52.530;13.304;2022-10-23T06:02:17;9.57;;;7.93;;
6723;SDS011;3399;52.530;13.304;2022-10-23T06:04:43;12.67;;;8.70;;
6723;SDS011;3399;52.530;13.304;2022-10-23T06:07:08;10.20;;;7.97;;
6723;SDS011;3399;52.530;13.304;2022-10-23T06:09:34;11.37;;;8.03;;
6723;SDS011;3399;52.530;13.304;2022-10-23T06:12:02;8.57;;;7.60;;
6723;SDS011;3399;52.530;13.304;2022-10-23T06:14:28;12.50;;;8.13;;
6723;SDS011;3399;52.530;13.304;2022-10-23T06:16:53;9.43;;;8.50;;
6723;SDS011;3399;52.530;13.304;2022-10-23T06:19:18;13.50;;;8.90;;
6723;SDS011;3399;52.530;13.304;2022-10-23T06:21:44;11.23;;;7.70;;
6723;SDS011;3399;52.530;13.304;2022-10-23T06:24:10;10.73;;;7.83;;
6723;SDS011;3399;52.530;13.304;2022-10-23T06:26:35;8.37;;;7.47;;
6723;SDS011;3399;52.530;13.304;2022-10-23T06:29:00;9.53;;;7.47;;
6723;SDS011;3399;52.530;13.304;2022-10-23T06:31:26;10.93;;;8.27;;
6723;SDS011;3399;52.530;13.304;2022-10-23T06:33:55;10.10;;;7.90;;
6723;SDS011;3399;52.530;13.304;2022-10-23T06:36:21;10.00;;;7.27;;
6723;SDS011;3399;52.530;13.304;2022-10-23T06:38:47;9.60;;;8.47;;
6723;SDS011;3399;52.530;13.304;2022-10-23T06:41:14;15.03;;;12.03;;
6723;SDS011;3399;52.530;13.304;2022-10-23T06:43:41;14.40;;;11.03;;
6723;SDS011;3399;52.530;13.304;2022-10-23T06:46:07;11.83;;;9.00;;
6723;SDS011;3399;52.530;13.304;2022-10-23T06:48:34;8.30;;;7.33;;
6723;SDS011;3399;52.530;13.304;2022-10-23T06:51:02;10.93;;;7.47;;
6723;SDS011;3399;52.530;13.304;2022-10-23T06:53:29;9.10;;;7.23;;
6723;SDS011;3399;52.530;13.304;2022-10-23T06:55:58;10.57;;;8.53;;
6723;SDS011;3399;52.530;13.304;2022-10-23T06:58:25;8.63;;;7.73;;
6723;SDS011;3399;52.530;13.304;2022-10-23T07:00:50;11.13;;;8.83;;
6723;SDS011;3399;52.530;13.304;2022-10-23T07:03:16;12.40;;;6.93;;
6723;SDS011;3399;52.530;13.304;2022-10-23T07:05:41;9.67;;;7.27;;
6723;SDS011;3399;52.530;13.304;2022-10-23T07:08:08;8.73;;;7.40;;
6723;SDS011;3399;52.530;13.304;2022-10-23T07:10:34;9.70;;;8.20;;
6723;SDS011;3399;52.530;13.304;2022-10-23T07:13:00;10.17;;;7.70;;
6723;SDS011;3399;52.530;13.304;2022-10-23T07:15:27;9.53;;;7.33;;
6723;SDS011;3399;52.530;13.304;2022-10-23T07:17:53;12.50;;;9.17;;
6723;SDS011;3399;52.530;13.304;2022-10-23T07:20:19;11.30;;;8.17;;
6723;SDS011;3399;52.530;13.304;2022-10-23T07:22:52;9.83;;;8.30;;
6723;SDS011;3399;52.530;13.304;2022-10-23T07:25:19;10.53;;;8.23;;
6723;SDS011;3399;52.530;13.304;2022-10-23T07:27:46;10.07;;;7.50;;
6723;SDS011;3399;52.530;13.304;2022-10-23T07:30:15;9.37;;;7.97;;
6723;SDS011;3399;52.530;13.304;2022-10-23T07:32:40;8.17;;;7.30;;
6723;SDS011;3399;52.530;13.304;2022-10-23T07:35:07;9.20;;;8.30;;
6723;SDS011;3399;52.530;13.304;2022-10-23T07:37:33;8.83;;;7.00;;
6723;SDS011;3399;52.530;13.304;2022-10-23T07:39:59;9.33;;;8.17;;
6723;SDS011;3399;52.530;13.304;2022-10-23T07:42:24;8.70;;;7.10;;
6723;SDS011;3399;52.530;13.304;2022-10-23T07:44:50;11.03;;;7.73;;
6723;SDS011;3399;52.530;13.304;2022-10-23T07:47:15;9.80;;;7.23;;
6723;SDS011;3399;52.530;13.304;2022-10-23T07:49:41;8.50;;;6.83;;
6723;SDS011;3399;52.530;13.304;2022-10-23T07:52:06;11.93;;;7.27;;
6723;SDS011;3399;52.530;13.304;2022-10-23T07:54:32;7.73;;;6.93;;
6723;SDS011;3399;52.530;13.304;2022-10-23T07:56:58;8.40;;;6.63;;
6723;SDS011;3399;52.530;13.304;2022-10-23T07:59:25;14.37;;;11.13;;
6723;SDS011;3399;52.530;13.304;2022-10-23T08:01:50;7.20;;;6.50;;
6723;SDS011;3399;52.530;13.304;2022-10-23T08:04:18;8.73;;;7.07;;
6723;SDS011;3399;52.530;13.304;2022-10-23T08:06:44;9.63;;;7.53;;
6723;SDS011;3399;52.530;13.304;2022-10-23T08:09:09;7.77;;;6.97;;
6723;SDS011;3399;52.530;13.304;2022-10-23T08:11:35;7.87;;;6.97;;
6723;SDS011;3399;52.530;13.304;2022-10-23T08:14:01;8.33;;;7.53;;
6723;SDS011;3399;52.530;13.304;2022-10-23T08:16:29;9.67;;;7.13;;
6723;SDS011;3399;52.530;13.304;2022-10-23T08:18:56;8.17;;;7.33;;
6723;SDS011;3399;52.530;13.304;2022-10-23T08:21:22;9.60;;;6.33;;
6723;SDS011;3399;52.530;13.304;2022-10-23T08:23:47;8.47;;;7.30;;
6723;SDS011;3399;52.530;13.304;2022-10-23T08:26:13;7.20;;;6.60;;
6723;SDS011;3399;52.530;13.304;2022-10-23T08:28:39;11.23;;;6.87;;
6723;SDS011;3399;52.530;13.304;2022-10-23T08:31:08;9.50;;;7.10;;
6723;SDS011;3399;52.530;13.304;2022-10-23T08:33:43;8.57;;;6.13;;
6723;SDS011;3399;52.530;13.304;2022-10-23T08:36:17;8.17;;;6.80;;
6723;SDS011;3399;52.530;13.304;2022-10-23T08:38:44;7.63;;;6.40;;
6723;SDS011;3399;52.530;13.304;2022-10-23T08:41:13;7.13;;;6.23;;
6723;SDS011;3399;52.530;13.304;2022-10-23T08:43:48;10.43;;;6.60;;
6723;SDS011;3399;52.530;13.304;2022-10-23T08:46:24;9.93;;;6.60;;
6723;SDS011;3399;52.530;13.304;2022-10-23T08:48:55;9.33;;;6.03;;
6723;SDS011;3399;52.530;13.304;2022-10-23T08:51:40;7.70;;;5.40;;
6723;SDS011;3399;52.530;13.304;2022-10-23T08:54:13;8.80;;;5.53;;
6723;SDS011;3399;52.530;13.304;2022-10-23T08:57:07;9.57;;;5.90;;
6723;SDS011;3399;52.530;13.304;2022-10-23T08:59:37;5.70;;;4.77;;
6723;SDS011;3399;52.530;13.304;2022-10-23T09:02:27;6.80;;;5.13;;
6723;SDS011;3399;52.530;13.304;2022-10-23T09:05:15;8.43;;;5.43;;
6723;SDS011;3399;52.530;13.304;2022-10-23T09:10:56;9.33;;;5.93;;
6723;SDS011;3399;52.530;13.304;2022-10-23T09:18:54;3.80;;;3.47;;
6723;SDS011;3399;52.530;13.304;2022-10-23T09:21:24;5.83;;;4.63;;
6723;SDS011;3399;52.530;13.304;2022-10-23T09:23:54;5.23;;;4.13;;
6723;SDS011;3399;52.530;13.304;2022-10-23T09:26:20;7.30;;;4.00;;
6723;SDS011;3399;52.530;13.304;2022-10-23T09:28:47;4.87;;;3.53;;
6723;SDS011;3399;52.530;13.304;2022-10-23T09:31:15;6.70;;;4.30;;
6723;SDS011;3399;52.530;13.304;2022-10-23T09:33:52;8.40;;;3.90;;
6723;SDS011;3399;52.530;13.304;2022-10-23T09:36:22;4.53;;;3.73;;
6723;SDS011;3399;52.530;13.304;2022-10-23T09:38:50;4.60;;;4.17;;
6723;SDS011;3399;52.530;13.304;2022-10-23T09:41:32;6.17;;;3.57;;
6723;SDS011;3399;52.530;13.304;2022-10-23T09:46:40;4.83;;;3.70;;
6723;SDS011;3399;52.530;13.304;2022-10-23T09:49:24;4.90;;;3.80;;
6723;SDS011;3399;52.530;13.304;2022-10-23T09:51:57;5.43;;;3.30;;
6723;SDS011;3399;52.530;13.304;2022-10-23T09:54:30;4.43;;;3.30;;
6723;SDS011;3399;52.530;13.304;2022-10-23T09:56:59;6.87;;;3.20;;
6723;SDS011;3399;52.530;13.304;2022-10-23T09:59:36;4.27;;;3.30;;
6723;SDS011;3399;52.530;13.304;2022-10-23T10:02:02;3.77;;;3.00;;
6723;SDS011;3399;52.530;13.304;2022-10-23T10:04:32;12.77;;;2.93;;
6723;SDS011;3399;52.530;13.304;2022-10-23T10:07:22;5.47;;;2.90;;
6723;SDS011;3399;52.530;13.304;2022-10-23T10:09:49;6.03;;;3.10;;
6723;SDS011;3399;52.530;13.304;2022-10-23T10:12:30;9.10;;;3.03;;
6723;SDS011;3399;52.530;13.304;2022-10-23T10:18:00;4.83;;;2.43;;
6723;SDS011;3399;52.530;13.304;2022-10-23T10:23:27;14.57;;;10.30;;
6723;SDS011;3399;52.530;13.304;2022-10-23T10:25:59;2.70;;;2.10;;
6723;SDS011;3399;52.530;13.304;2022-10-23T10:28:47;4.80;;;3.30;;
6723;SDS011;3399;52.530;13.304;2022-10-23T10:34:10;3.60;;;2.10;;
6723;SDS011;3399;52.530;13.304;2022-10-23T10:36:52;2.33;;;2.13;;
6723;SDS011;3399;52.530;13.304;2022-10-23T10:42:17;2.77;;;2.03;;
6723;SDS011;3399;52.530;13.304;2022-10-23T10:53:17;3.57;;;2.07;;
6723;SDS011;3399;52.530;13.304;2022-10-23T10:55:51;4.63;;;2.20;;
6723;SDS011;3399;52.530;13.304;2022-10-23T10:58:19;4.90;;;2.17;;
6723;SDS011;3399;52.530;13.304;2022-10-23T11:01:05;5.50;;;2.10;;
6723;SDS011;3399;52.530;13.304;2022-10-23T11:03:38;4.03;;;2.33;;
6723;SDS011;3399;52.530;13.304;2022-10-23T11:06:12;3.13;;;1.90;;
6723;SDS011;3399;52.530;13.304;2022-10-23T11:08:40;4.77;;;2.60;;
6723;SDS011;3399;52.530;13.304;2022-10-23T11:11:14;3.27;;;2.07;;
6723;SDS011;3399;52.530;13.304;2022-10-23T11:13:45;4.30;;;2.30;;
6723;SDS011;3399;52.530;13.304;2022-10-23T11:18:55;3.73;;;2.23;;
6723;SDS011;3399;52.530;13.304;2022-10-23T11:21:36;7.03;;;1.90;;
6723;SDS011;3399;52.530;13.304;2022-10-23T11:30:16;3.57;;;2.00;;
6723;SDS011;3399;52.530;13.304;2022-10-23T11:32:57;2.87;;;1.73;;
6723;SDS011;3399;52.530;13.304;2022-10-23T11:35:53;2.97;;;2.20;;
6723;SDS011;3399;52.530;13.304;2022-10-23T11:38:41;4.60;;;2.27;;
6723;SDS011;3399;52.530;13.304;2022-10-23T11:43:47;3.33;;;2.00;;
6723;SDS011;3399;52.530;13.304;2022-10-23T11:48:49;3.30;;;2.57;;
6723;SDS011;3399;52.530;13.304;2022-10-23T11:54:07;7.97;;;2.27;;
6723;SDS011;3399;52.530;13.304;2022-10-23T11:59:35;4.57;;;2.10;;
6723;SDS011;3399;52.530;13.304;2022-10-23T12:02:18;4.33;;;2.37;;
6723;SDS011;3399;52.530;13.304;2022-10-23T12:04:46;4.50;;;2.00;;
6723;SDS011;3399;52.530;13.304;2022-10-23T12:07:15;4.13;;;1.50;;
6723;SDS011;3399;52.530;13.304;2022-10-23T12:10:01;4.87;;;2.10;;
6723;SDS011;3399;52.530;13.304;2022-10-23T12:12:30;6.57;;;2.47;;
6723;SDS011;3399;52.530;13.304;2022-10-23T12:15:06;4.60;;;2.37;;
6723;SDS011;3399;52.530;13.304;2022-10-23T12:17:33;3.50;;;1.77;;
6723;SDS011;3399;52.530;13.304;2022-10-23T12:20:15;3.10;;;1.60;;
6723;SDS011;3399;52.530;13.304;2022-10-23T12:26:04;3.42;;;1.92;;
6723;SDS011;3399;52.530;13.304;2022-10-23T12:28:43;4.60;;;1.77;;
6723;SDS011;3399;52.530;13.304;2022-10-23T12:31:33;2.70;;;1.90;;
6723;SDS011;3399;52.530;13.304;2022-10-23T12:34:12;2.47;;;1.63;;
6723;SDS011;3399;52.530;13.304;2022-10-23T12:39:29;1.93;;;1.27;;
6723;SDS011;3399;52.530;13.304;2022-10-23T12:41:56;3.73;;;2.43;;
6723;SDS011;3399;52.530;13.304;2022-10-23T12:44:23;3.10;;;1.83;;
6723;SDS011;3399;52.530;13.304;2022-10-23T12:46:51;9.35;;;3.67;;
6723;SDS011;3399;52.530;13.304;2022-10-23T12:49:21;6.07;;;3.10;;
6723;SDS011;3399;52.530;13.304;2022-10-23T12:51:58;2.43;;;1.83;;
6723;SDS011;3399;52.530;13.304;2022-10-23T12:54:24;2.63;;;1.83;;
6723;SDS011;3399;52.530;13.304;2022-10-23T12:56:50;3.40;;;2.20;;
6723;SDS011;3399;52.530;13.304;2022-10-23T12:59:23;2.33;;;1.70;;
6723;SDS011;3399;52.530;13.304;2022-10-23T13:01:52;5.80;;;1.67;;
6723;SDS011;3399;52.530;13.304;2022-10-23T13:06:57;3.00;;;1.73;;
6723;SDS011;3399;52.530;13.304;2022-10-23T13:09:29;3.70;;;2.20;;
6723;SDS011;3399;52.530;13.304;2022-10-23T13:11:58;2.37;;;1.33;;
6723;SDS011;3399;52.530;13.304;2022-10-23T13:14:37;2.20;;;1.33;;
6723;SDS011;3399;52.530;13.304;2022-10-23T13:17:07;4.17;;;2.10;;
6723;SDS011;3399;52.530;13.304;2022-10-23T13:19:35;4.23;;;1.80;;
6723;SDS011;3399;52.530;13.304;2022-10-23T13:22:04;2.63;;;1.60;;
6723;SDS011;3399;52.530;13.304;2022-10-23T13:24:45;2.60;;;1.57;;
6723;SDS011;3399;52.530;13.304;2022-10-23T13:29:56;2.67;;;1.63;;
6723;SDS011;3399;52.530;13.304;2022-10-23T13:32:22;3.97;;;1.70;;
6723;SDS011;3399;52.530;13.304;2022-10-23T13:34:51;2.37;;;1.60;;
6723;SDS011;3399;52.530;13.304;2022-10-23T13:37:21;4.20;;;1.53;;
6723;SDS011;3399;52.530;13.304;2022-10-23T13:39:58;4.07;;;2.00;;
6723;SDS011;3399;52.530;13.304;2022-10-23T13:42:24;3.30;;;1.30;;
6723;SDS011;3399;52.530;13.304;2022-10-23T13:44:50;2.23;;;1.73;;
6723;SDS011;3399;52.530;13.304;2022-10-23T13:47:15;5.03;;;2.40;;
6723;SDS011;3399;52.530;13.304;2022-10-23T13:49:42;2.40;;;2.07;;
6723;SDS011;3399;52.530;13.304;2022-10-23T13:52:08;4.00;;;2.20;;
6723;SDS011;3399;52.530;13.304;2022-10-23T13:54:37;3.13;;;2.57;;
6723;SDS011;3399;52.530;13.304;2022-10-23T13:57:02;3.50;;;2.57;;
6723;SDS011;3399;52.530;13.304;2022-10-23T13:59:27;3.10;;;2.60;;
6723;SDS011;3399;52.530;13.304;2022-10-23T14:01:53;5.17;;;2.33;;
6723;SDS011;3399;52.530;13.304;2022-10-23T14:04:19;4.10;;;1.93;;
6723;SDS011;3399;52.530;13.304;2022-10-23T14:06:45;5.70;;;2.30;;
6723;SDS011;3399;52.530;13.304;2022-10-23T14:09:12;9.10;;;2.60;;
6723;SDS011;3399;52.530;13.304;2022-10-23T14:11:40;4.57;;;2.47;;
6723;SDS011;3399;52.530;13.304;2022-10-23T14:14:06;3.33;;;2.20;;
6723;SDS011;3399;52.530;13.304;2022-10-23T14:16:31;5.43;;;2.70;;
6723;SDS011;3399;52.530;13.304;2022-10-23T14:18:57;3.27;;;1.90;;
6723;SDS011;3399;52.530;13.304;2022-10-23T14:21:23;3.37;;;2.57;;
6723;SDS011;3399;52.530;13.304;2022-10-23T14:23:49;3.37;;;2.40;;
6723;SDS011;3399;52.530;13.304;2022-10-23T14:26:18;4.73;;;2.57;;
6723;SDS011;3399;52.530;13.304;2022-10-23T14:28:46;4.13;;;1.90;;
6723;SDS011;3399;52.530;13.304;2022-10-23T14:31:13;5.63;;;2.70;;
6723;SDS011;3399;52.530;13.304;2022-10-23T14:33:40;3.77;;;2.43;;
6723;SDS011;3399;52.530;13.304;2022-10-23T14:36:06;5.20;;;2.80;;
6723;SDS011;3399;52.530;13.304;2022-10-23T14:38:32;2.67;;;2.03;;
6723;SDS011;3399;52.530;13.304;2022-10-23T14:40:58;5.57;;;3.13;;
6723;SDS011;3399;52.530;13.304;2022-10-23T14:43:24;3.33;;;2.30;;
6723;SDS011;3399;52.530;13.304;2022-10-23T14:45:50;3.27;;;2.03;;
6723;SDS011;3399;52.530;13.304;2022-10-23T14:48:16;2.50;;;2.10;;
6723;SDS011;3399;52.530;13.304;2022-10-23T14:50:45;4.27;;;2.90;;
6723;SDS011;3399;52.530;13.304;2022-10-23T14:53:12;5.90;;;2.87;;
6723;SDS011;3399;52.530;13.304;2022-10-23T14:55:39;5.10;;;2.37;;
6723;SDS011;3399;52.530;13.304;2022-10-23T14:58:04;4.97;;;2.63;;
6723;SDS011;3399;52.530;13.304;2022-10-23T15:00:30;4.97;;;3.03;;
6723;SDS011;3399;52.530;13.304;2022-10-23T15:02:56;5.03;;;1.90;;
6723;SDS011;3399;52.530;13.304;2022-10-23T15:05:22;4.27;;;2.33;;
6723;SDS011;3399;52.530;13.304;2022-10-23T15:07:48;5.80;;;2.40;;
6723;SDS011;3399;52.530;13.304;2022-10-23T15:10:13;5.63;;;2.17;;
6723;SDS011;3399;52.530;13.304;2022-10-23T15:12:39;4.20;;;1.90;;
6723;SDS011;3399;52.530;13.304;2022-10-23T15:15:05;5.70;;;2.00;;
6723;SDS011;3399;52.530;13.304;2022-10-23T15:17:32;6.40;;;2.57;;
6723;SDS011;3399;52.530;13.304;2022-10-23T15:20:02;3.30;;;2.20;;
6723;SDS011;3399;52.530;13.304;2022-10-23T15:22:28;2.30;;;2.10;;
6723;SDS011;3399;52.530;13.304;2022-10-23T15:24:56;3.43;;;2.10;;
6723;SDS011;3399;52.530;13.304;2022-10-23T15:27:21;6.80;;;3.13;;
6723;SDS011;3399;52.530;13.304;2022-10-23T15:29:47;2.77;;;2.40;;
6723;SDS011;3399;52.530;13.304;2022-10-23T15:32:13;4.00;;;2.17;;
6723;SDS011;3399;52.530;13.304;2022-10-23T15:34:40;4.87;;;2.17;;
6723;SDS011;3399;52.530;13.304;2022-10-23T15:37:07;4.30;;;2.07;;
6723;SDS011;3399;52.530;13.304;2022-10-23T15:39:33;3.33;;;2.50;;
6723;SDS011;3399;52.530;13.304;2022-10-23T15:42:00;3.57;;;2.27;;
6723;SDS011;3399;52.530;13.304;2022-10-23T15:44:30;3.07;;;1.83;;
6723;SDS011;3399;52.530;13.304;2022-10-23T15:46:56;3.67;;;2.03;;
6723;SDS011;3399;52.530;13.304;2022-10-23T15:49:23;5.13;;;2.70;;
6723;SDS011;3399;52.530;13.304;2022-10-23T15:51:50;4.20;;;2.37;;
6723;SDS011;3399;52.530;13.304;2022-10-23T15:54:17;5.00;;;2.90;;
6723;SDS011;3399;52.530;13.304;2022-10-23T15:56:48;4.33;;;2.03;;
6723;SDS011;3399;52.530;13.304;2022-10-23T15:59:16;3.63;;;2.43;;
6723;SDS011;3399;52.530;13.304;2022-10-23T16:01:44;3.53;;;2.17;;
6723;SDS011;3399;52.530;13.304;2022-10-23T16:04:10;3.33;;;1.90;;
6723;SDS011;3399;52.530;13.304;2022-10-23T16:06:35;3.00;;;2.40;;
6723;SDS011;3399;52.530;13.304;2022-10-23T16:09:01;7.83;;;3.30;;
6723;SDS011;3399;52.530;13.304;2022-10-23T16:11:29;4.40;;;3.07;;
6723;SDS011;3399;52.530;13.304;2022-10-23T16:13:57;5.97;;;2.67;;
6723;SDS011;3399;52.530;13.304;2022-10-23T16:16:24;3.30;;;2.67;;
6723;SDS011;3399;52.530;13.304;2022-10-23T16:18:51;3.23;;;2.70;;
6723;SDS011;3399;52.530;13.304;2022-10-23T16:21:19;8.93;;;3.47;;
6723;SDS011;3399;52.530;13.304;2022-10-23T16:23:49;7.23;;;3.00;;
6723;SDS011;3399;52.530;13.304;2022-10-23T16:26:16;2.50;;;2.30;;
6723;SDS011;3399;52.530;13.304;2022-10-23T16:28:43;2.40;;;2.23;;